KLNR/LNR METAR and TAF weather

Enter ICAO airport designator
Station Type Date Time Source
KLNR METAR 2019/04/18 14:21 UTC NOAA

KLNR 181421Z AUTO 31012KT 10SM OVC015 07/03 A2965 RMK AO2 T00670033


Station Type Date Time Source
KLNR Decoded METAR 2019/04/18 14:21 UTC NOAA

LONE ROCK TRI-COUNTY REG, WI, United States (KLNR) 43-13N 090-11W 217M
Apr 18, 2019 - 10:21 AM EDT / 2019.04.18 1421 UTC
Wind: from the NW (310 degrees) at 14 MPH (12 KT):0
Visibility: 10 mile(s):0
Sky conditions: overcast
Temperature: 44.1 F (6.7 C)
Dew Point: 37.9 F (3.3 C)
Relative Humidity: 78%
Pressure (altimeter): 29.65 in. Hg (1004 hPa)
ob: KLNR 181421Z AUTO 31012KT 10SM OVC015 07/03 A2965 RMK AO2 T00670033
cycle: 14

Station Type Date Time Source
KLNR TAF UTC NOAA

Error!

Example: see airport list